createdAt,value
2023-01-23T00:01:43.555Z,-1.90
2023-01-23T00:04:15.047Z,-1.80
2023-01-23T00:06:43.994Z,-1.80
2023-01-23T00:09:13.831Z,-1.80
2023-01-23T00:11:42.330Z,-1.90
2023-01-23T00:14:12.032Z,-1.90
2023-01-23T00:16:40.561Z,-1.90
2023-01-23T00:19:10.404Z,-1.90
2023-01-23T00:21:39.473Z,-1.90
2023-01-23T00:24:09.982Z,-1.90
2023-01-23T00:26:39.834Z,-1.90
2023-01-23T00:29:08.617Z,-1.80
2023-01-23T00:31:40.206Z,-1.80
2023-01-23T00:34:12.549Z,-1.80
2023-01-23T00:36:44.569Z,-1.70
2023-01-23T00:39:20.034Z,-1.80
2023-01-23T00:41:51.377Z,-1.80
2023-01-23T00:44:20.274Z,-1.80
2023-01-23T00:46:49.857Z,-1.80
2023-01-23T00:49:18.949Z,-1.80
2023-01-23T00:51:47.718Z,-1.80
2023-01-23T00:54:16.684Z,-1.80
2023-01-23T00:56:45.366Z,-1.70
2023-01-23T00:59:15.242Z,-1.80
2023-01-23T01:01:43.682Z,-1.80
2023-01-23T01:04:12.224Z,-1.80
2023-01-23T01:06:40.673Z,-1.80
2023-01-23T01:09:09.195Z,-1.80
2023-01-23T01:11:37.628Z,-1.80
2023-01-23T01:14:06.595Z,-1.80
2023-01-23T01:16:36.453Z,-1.90
2023-01-23T01:19:05.426Z,-1.90
2023-01-23T01:21:33.919Z,-1.90
2023-01-23T01:24:02.566Z,-1.90
2023-01-23T01:26:30.977Z,-1.90
2023-01-23T01:28:59.416Z,-1.90
2023-01-23T01:31:28.457Z,-1.80
2023-01-23T01:33:58.371Z,-1.80
2023-01-23T01:36:27.185Z,-1.80
2023-01-23T01:38:55.620Z,-1.80
2023-01-23T01:41:24.106Z,-1.80
2023-01-23T01:43:53.463Z,-1.80
2023-01-23T01:46:24.796Z,-1.90
2023-01-23T01:49:07.821Z,-1.90
2023-01-23T01:51:43.469Z,-1.90
2023-01-23T01:54:22.928Z,-2.00
2023-01-23T01:56:56.616Z,-2.10
2023-01-23T01:59:30.797Z,-2.10
2023-01-23T02:02:06.127Z,-2.00
2023-01-23T02:04:42.449Z,-2.10
2023-01-23T02:07:18.775Z,-2.10
2023-01-23T02:09:48.112Z,-2.10
2023-01-23T02:12:16.948Z,-2.20
2023-01-23T02:14:45.542Z,-2.20
2023-01-23T02:17:14.433Z,-2.10
2023-01-23T02:20:00.575Z,-2.10
2023-01-23T02:22:43.464Z,-2.10
2023-01-23T02:25:22.154Z,-1.00
2023-01-23T02:27:51.979Z,-2.20
2023-01-23T02:30:21.510Z,-2.10
2023-01-23T02:32:50.198Z,-2.10
2023-01-23T02:35:26.608Z,-2.10
2023-01-23T02:37:59.980Z,-2.20
2023-01-23T02:40:33.931Z,-2.10
2023-01-23T02:43:06.517Z,-2.20
2023-01-23T02:45:35.056Z,-2.20
2023-01-23T02:48:06.129Z,-2.30
2023-01-23T02:50:34.747Z,-2.20
2023-01-23T02:53:03.733Z,-2.20
2023-01-23T02:55:42.409Z,-2.20
2023-01-23T02:58:29.667Z,-2.20
2023-01-23T03:00:58.234Z,-2.10
2023-01-23T03:03:26.839Z,-2.10
2023-01-23T03:05:55.952Z,-2.20
2023-01-23T03:08:26.224Z,-2.20
2023-01-23T03:10:54.852Z,-2.20
2023-01-23T03:13:24.650Z,-2.20
2023-01-23T03:15:53.680Z,-2.20
2023-01-23T03:18:22.133Z,-2.10
2023-01-23T03:20:50.720Z,-2.10
2023-01-23T03:23:19.166Z,-2.10
2023-01-23T03:25:49.017Z,-2.10
2023-01-23T03:28:31.542Z,-2.00
2023-01-23T03:31:01.488Z,-2.00
2023-01-23T03:33:30.388Z,-2.00
2023-01-23T03:38:27.521Z,-2.00
2023-01-23T03:41:13.400Z,-2.00
2023-01-23T03:43:41.821Z,-2.10
2023-01-23T03:46:11.754Z,-2.10
2023-01-23T03:48:40.932Z,-2.10
2023-01-23T03:51:09.403Z,-2.00
2023-01-23T03:53:38.043Z,-2.00
2023-01-23T03:56:07.868Z,-2.10
2023-01-23T03:58:36.589Z,-2.00
2023-01-23T04:01:08.377Z,-2.10
2023-01-23T04:03:38.471Z,-2.00
2023-01-23T04:06:07.559Z,-2.00
2023-01-23T04:08:36.110Z,-2.00
2023-01-23T04:11:07.056Z,-2.10
2023-01-23T04:13:35.610Z,-2.10
2023-01-23T04:16:05.551Z,-2.10
2023-01-23T04:18:34.324Z,-2.10
2023-01-23T04:21:04.276Z,-2.20
2023-01-23T04:23:33.269Z,-2.20
2023-01-23T04:26:01.700Z,-2.20
2023-01-23T04:28:30.212Z,-2.20
2023-01-23T04:31:01.192Z,-2.10
2023-01-23T04:33:29.976Z,-2.10
2023-01-23T04:36:01.427Z,-2.10
2023-01-23T04:38:32.430Z,-2.10
2023-01-23T04:41:00.943Z,-2.20
2023-01-23T04:43:29.392Z,-2.20
2023-01-23T04:45:58.982Z,-2.10
2023-01-23T04:48:27.716Z,-2.10
2023-01-23T04:50:56.197Z,-2.10
2023-01-23T04:53:24.659Z,-2.10
2023-01-23T04:55:54.450Z,-2.20
2023-01-23T04:58:22.918Z,-2.10
2023-01-23T05:00:51.946Z,-2.20
2023-01-23T05:03:20.737Z,-2.10
2023-01-23T05:05:50.168Z,-2.10
2023-01-23T05:08:18.576Z,-5.20
2023-01-23T05:10:47.058Z,-2.10
2023-01-23T05:13:17.112Z,-2.10
2023-01-23T05:15:45.622Z,-2.20
2023-01-23T05:18:14.117Z,-2.30
2023-01-23T05:20:42.562Z,-2.20
2023-01-23T05:23:11.358Z,-2.10
2023-01-23T05:25:39.804Z,-2.20
2023-01-23T05:28:10.237Z,-2.10
2023-01-23T05:30:41.565Z,-2.30
2023-01-23T05:33:10.081Z,-2.30
2023-01-23T05:35:41.089Z,-2.30
2023-01-23T05:38:09.553Z,-2.20
2023-01-23T05:40:37.976Z,-2.30
2023-01-23T05:43:06.648Z,-2.30
2023-01-23T05:45:35.583Z,-2.30
2023-01-23T05:48:06.138Z,-2.30
2023-01-23T05:50:34.817Z,-2.30
2023-01-23T05:53:03.377Z,-2.30
2023-01-23T05:55:32.123Z,-2.40
2023-01-23T05:58:00.585Z,-2.30
2023-01-23T06:00:29.289Z,-2.30
2023-01-23T06:02:58.029Z,-2.40
2023-01-23T06:05:27.987Z,-2.50
2023-01-23T06:07:56.720Z,-2.50
2023-01-23T06:10:25.218Z,-2.50
2023-01-23T06:12:54.020Z,-2.60
2023-01-23T06:17:51.479Z,-2.50
2023-01-23T06:20:20.516Z,-2.50
2023-01-23T06:22:50.741Z,-2.40
2023-01-23T06:25:21.016Z,-2.60
2023-01-23T06:27:49.978Z,-2.00
2023-01-23T06:30:20.358Z,-2.50
2023-01-23T06:32:49.103Z,-2.60
2023-01-23T06:35:18.139Z,-2.60
2023-01-23T06:37:46.905Z,-2.60
2023-01-23T06:40:17.883Z,-2.50
2023-01-23T06:42:46.466Z,-2.50
2023-01-23T06:45:14.890Z,-2.50
2023-01-23T06:47:43.312Z,-2.50
2023-01-23T06:50:12.356Z,-2.60
2023-01-23T06:52:40.789Z,-2.60
2023-01-23T06:55:10.581Z,-2.60
2023-01-23T06:57:40.925Z,-2.50
2023-01-23T07:00:11.496Z,-2.50
2023-01-23T07:02:40.364Z,-2.60
2023-01-23T07:05:09.602Z,-2.50
2023-01-23T07:10:08.438Z,-2.50
2023-01-23T07:12:36.953Z,-2.50
2023-01-23T07:15:08.521Z,-2.50
2023-01-23T07:17:37.075Z,-2.50
2023-01-23T07:20:06.453Z,-2.50
2023-01-23T07:22:34.917Z,-2.50
2023-01-23T07:25:03.355Z,-2.50
2023-01-23T07:27:33.172Z,-2.50
2023-01-23T07:30:02.607Z,-2.40
2023-01-23T07:32:32.429Z,-2.40
2023-01-23T07:35:00.905Z,-2.40
2023-01-23T07:37:29.367Z,-2.40
2023-01-23T07:39:57.806Z,-2.40
2023-01-23T07:42:26.344Z,-2.40
2023-01-23T07:44:54.769Z,-2.40
2023-01-23T07:47:23.191Z,-2.40
2023-01-23T07:49:53.016Z,-2.40
2023-01-23T07:52:21.523Z,-2.40
2023-01-23T07:54:49.970Z,-2.30
2023-01-23T07:57:18.397Z,-2.30
2023-01-23T07:59:48.617Z,-2.40
2023-01-23T08:02:17.100Z,-2.30
2023-01-23T08:04:46.759Z,-2.30
2023-01-23T08:07:16.606Z,-2.30
2023-01-23T08:09:45.747Z,-2.30
2023-01-23T08:12:14.527Z,-2.30
2023-01-23T08:14:42.988Z,-2.30
2023-01-23T08:17:11.455Z,-2.30
2023-01-23T08:19:40.109Z,-2.20
2023-01-23T08:22:08.520Z,-2.20
2023-01-23T08:24:38.635Z,-2.10
2023-01-23T08:27:07.103Z,-2.10
2023-01-23T08:29:35.821Z,-2.00
2023-01-23T08:32:04.295Z,-2.00
2023-01-23T08:34:32.878Z,-2.00
2023-01-23T08:37:01.301Z,-2.00
2023-01-23T08:39:31.995Z,-2.00
2023-01-23T08:42:02.230Z,-2.10
2023-01-23T08:44:31.542Z,-2.30
2023-01-23T08:46:59.992Z,-2.30
2023-01-23T08:49:28.501Z,-2.20
2023-01-23T08:51:59.248Z,-2.20
2023-01-23T08:56:56.727Z,-2.10
2023-01-23T08:59:26.854Z,-2.10
2023-01-23T09:01:55.803Z,-2.10
2023-01-23T09:04:24.296Z,-2.10
2023-01-23T09:06:52.731Z,-2.10
2023-01-23T09:09:21.150Z,-2.30
2023-01-23T09:11:49.823Z,-2.30
2023-01-23T09:14:18.274Z,-2.40
2023-01-23T09:16:48.181Z,-2.40
2023-01-23T09:19:16.891Z,-2.30
2023-01-23T09:21:45.364Z,-2.30
2023-01-23T09:24:13.885Z,-2.30
2023-01-23T09:26:43.601Z,-2.30
2023-01-23T09:29:12.038Z,-2.20
2023-01-23T09:31:40.502Z,-2.10
2023-01-23T09:34:10.374Z,-2.10
2023-01-23T09:36:43.266Z,-2.00
2023-01-23T09:39:13.101Z,-1.90
2023-01-23T09:41:42.575Z,-1.90
2023-01-23T09:44:17.759Z,-1.80
2023-01-23T09:46:53.048Z,-1.80
2023-01-23T09:49:30.387Z,-1.80
2023-01-23T09:52:04.165Z,-1.70
2023-01-23T09:54:44.686Z,-1.80
2023-01-23T09:57:19.738Z,-1.70
2023-01-23T10:00:00.110Z,-1.60
2023-01-23T10:02:29.802Z,-1.70
2023-01-23T10:05:03.487Z,-1.70
2023-01-23T10:07:56.909Z,-1.70
2023-01-23T10:10:57.176Z,-1.70
2023-01-23T10:13:53.813Z,-1.70
2023-01-23T10:16:50.727Z,-1.60
2023-01-23T10:19:40.079Z,-1.60
2023-01-23T10:22:29.255Z,-1.70
2023-01-23T10:24:59.925Z,-1.70
2023-01-23T10:27:38.243Z,-1.60
2023-01-23T10:30:21.133Z,-1.60
2023-01-23T10:32:54.024Z,-1.60
2023-01-23T10:35:30.306Z,-1.50
2023-01-23T10:38:07.559Z,-1.50
2023-01-23T10:40:53.484Z,-1.40
2023-01-23T10:43:23.693Z,-1.40
2023-01-23T10:45:52.342Z,-1.40
2023-01-23T10:48:41.726Z,-1.30
2023-01-23T10:51:46.308Z,-1.30
2023-01-23T10:54:31.877Z,-1.40
2023-01-23T10:57:03.697Z,-1.30
2023-01-23T10:59:38.021Z,-1.40
2023-01-23T11:02:28.505Z,-1.40
2023-01-23T11:04:57.372Z,-1.40
2023-01-23T11:07:28.732Z,-1.40
2023-01-23T11:10:01.397Z,-1.40
2023-01-23T11:12:32.519Z,-1.40
2023-01-23T11:15:22.409Z,-1.40
2023-01-23T11:17:53.026Z,-1.40
2023-01-23T11:20:28.535Z,-1.40
2023-01-23T11:23:07.042Z,-1.40
2023-01-23T11:25:40.523Z,-1.40
2023-01-23T11:28:27.301Z,-1.30
2023-01-23T11:31:13.711Z,-1.30
2023-01-23T11:33:48.586Z,-1.30
2023-01-23T11:36:40.377Z,-1.30
2023-01-23T11:39:22.829Z,-1.30
2023-01-23T11:41:53.543Z,-1.30
2023-01-23T11:44:25.382Z,-1.30
2023-01-23T11:47:23.105Z,-1.30
2023-01-23T11:50:11.989Z,-1.30
2023-01-23T11:52:51.248Z,-1.30
2023-01-23T11:55:56.165Z,-1.30
2023-01-23T11:58:50.311Z,-1.20
2023-01-23T12:01:24.361Z,-1.20
2023-01-23T12:04:21.616Z,-1.20
2023-01-23T12:07:12.976Z,-1.20
2023-01-23T12:09:51.712Z,-1.20
2023-01-23T12:12:47.835Z,-1.10
2023-01-23T12:15:31.878Z,-1.00
2023-01-23T12:18:16.595Z,-1.10
2023-01-23T12:20:57.328Z,-1.10
2023-01-23T12:23:46.556Z,-1.00
2023-01-23T12:26:19.529Z,-1.00
2023-01-23T12:29:26.565Z,-1.20
2023-01-23T12:32:25.328Z,-1.20
2023-01-23T12:35:09.852Z,-1.50
2023-01-23T12:38:01.515Z,-1.40
2023-01-23T12:40:38.785Z,-1.30
2023-01-23T12:43:14.420Z,-1.30
2023-01-23T12:45:49.429Z,-1.20
2023-01-23T12:48:28.215Z,-1.20
2023-01-23T12:51:04.443Z,-1.20
2023-01-23T12:53:38.627Z,-1.20
2023-01-23T12:56:12.844Z,-1.10
2023-01-23T12:58:45.297Z,-1.20
2023-01-23T13:01:45.803Z,-1.20
2023-01-23T13:04:35.631Z,-1.20
2023-01-23T13:07:31.855Z,-1.10
2023-01-23T13:10:51.307Z,-1.20
2023-01-23T13:13:20.534Z,-1.10
2023-01-23T13:16:06.058Z,-1.10
2023-01-23T13:18:56.606Z,-1.20
2023-01-23T13:21:44.310Z,-1.10
2023-01-23T13:25:00.092Z,-1.10
2023-01-23T13:27:44.881Z,-1.10
2023-01-23T13:30:41.713Z,-1.10
2023-01-23T13:33:55.250Z,-1.00
2023-01-23T13:36:40.524Z,-1.10
2023-01-23T13:39:30.504Z,-1.10
2023-01-23T13:42:35.974Z,-1.10
2023-01-23T13:45:32.596Z,-1.00
2023-01-23T14:20:39.951Z,-1.20
2023-01-23T14:23:28.274Z,-1.20
2023-01-23T14:25:57.290Z,-1.10
2023-01-23T14:28:25.998Z,-1.20
2023-01-23T14:31:01.561Z,-1.10
2023-01-23T14:33:35.791Z,-1.20
2023-01-23T14:36:04.787Z,-1.20
2023-01-23T14:38:35.915Z,-1.20
2023-01-23T14:41:09.048Z,-1.10
2023-01-23T14:43:38.840Z,-1.10
2023-01-23T14:46:16.569Z,-1.10
2023-01-23T14:48:47.843Z,-1.10
2023-01-23T14:51:21.902Z,-1.10
2023-01-23T14:53:59.458Z,-1.10
2023-01-23T14:56:32.848Z,-1.10
2023-01-23T14:59:05.099Z,-1.20
2023-01-23T15:01:35.928Z,-1.20
2023-01-23T15:04:08.071Z,-1.10
2023-01-23T15:06:38.194Z,-1.20
2023-01-23T15:09:15.865Z,-1.20
2023-01-23T15:11:45.477Z,-1.10
2023-01-23T15:14:27.195Z,-1.10
2023-01-23T15:17:04.887Z,-1.20
2023-01-23T15:19:36.891Z,-1.20
2023-01-23T15:22:19.348Z,-1.30
2023-01-23T15:24:50.003Z,-1.20
2023-01-23T15:27:27.745Z,-1.20
2023-01-23T15:30:37.898Z,-1.20
2023-01-23T15:33:25.138Z,-1.20
2023-01-23T15:35:54.080Z,-1.20
2023-01-23T15:38:23.085Z,-1.20
2023-01-23T15:40:52.925Z,-1.20
2023-01-23T15:43:21.408Z,-1.20
2023-01-23T15:45:49.881Z,-1.30
2023-01-23T15:48:18.334Z,-1.20
2023-01-23T15:50:46.800Z,-1.20
2023-01-23T15:53:16.469Z,-1.20
2023-01-23T15:55:45.257Z,-1.20
2023-01-23T15:58:17.829Z,-1.10
2023-01-23T16:00:47.047Z,-1.00
2023-01-23T16:03:15.546Z,-1.10
2023-01-23T16:05:45.105Z,-1.00
2023-01-23T16:08:23.103Z,-1.00
2023-01-23T16:10:52.303Z,-1.00
2023-01-23T16:13:22.243Z,-1.00
2023-01-23T16:15:51.019Z,-1.00
2023-01-23T16:18:19.752Z,-1.00
2023-01-23T16:20:48.519Z,-1.00
2023-01-23T16:23:21.777Z,-1.00
2023-01-23T16:25:50.884Z,-1.00
2023-01-23T16:28:24.450Z,-1.10
2023-01-23T16:30:53.160Z,-1.00
2023-01-23T16:33:22.480Z,-1.00
2023-01-23T16:35:52.391Z,-0.90
2023-01-23T16:38:24.555Z,-0.90
2023-01-23T16:40:54.486Z,-1.00
2023-01-23T16:43:25.072Z,-1.00
2023-01-23T16:45:56.482Z,-1.00
2023-01-23T16:48:28.260Z,-1.00
2023-01-23T16:51:01.893Z,-0.90
2023-01-23T16:53:33.474Z,-0.90
2023-01-23T16:56:03.529Z,-0.90
2023-01-23T16:58:39.486Z,-0.90
2023-01-23T17:01:16.554Z,-0.90
2023-01-23T17:03:46.708Z,-0.90
2023-01-23T17:06:17.269Z,-0.90
2023-01-23T17:11:21.579Z,-0.90
2023-01-23T17:13:57.636Z,-0.90
2023-01-23T17:16:27.940Z,-0.90
2023-01-23T17:18:59.279Z,-0.80
2023-01-23T17:21:33.576Z,-0.90
2023-01-23T17:24:02.489Z,-0.80
2023-01-23T17:26:30.962Z,-0.80
2023-01-23T17:29:00.995Z,-0.80
2023-01-23T17:31:32.575Z,-0.80
2023-01-23T17:34:03.053Z,-0.90
2023-01-23T17:36:31.525Z,-0.80
2023-01-23T17:39:00.923Z,-0.90
2023-01-23T17:41:31.557Z,-0.90
2023-01-23T17:44:02.109Z,-0.80
2023-01-23T17:46:34.286Z,-0.80
2023-01-23T17:49:02.833Z,-0.80
2023-01-23T17:51:33.156Z,-0.80
2023-01-23T17:54:01.626Z,-0.80
2023-01-23T17:56:30.054Z,-0.80
2023-01-23T17:58:58.496Z,-0.80
2023-01-23T18:01:28.425Z,-0.80
2023-01-23T18:06:25.924Z,-0.80
2023-01-23T18:08:54.587Z,-0.80
2023-01-23T18:11:26.840Z,-0.80
2023-01-23T18:14:21.418Z,-0.70
2023-01-23T18:16:51.867Z,-0.70
2023-01-23T18:19:22.802Z,-0.70
2023-01-23T18:21:53.721Z,-0.70
2023-01-23T18:24:27.527Z,-0.80
2023-01-23T18:27:01.700Z,-0.80
2023-01-23T18:29:44.449Z,-0.80
2023-01-23T18:33:02.625Z,-0.80
2023-01-23T18:35:48.103Z,-0.80
2023-01-23T18:38:27.619Z,-0.70
2023-01-23T18:41:09.678Z,-0.70
2023-01-23T18:43:41.216Z,-0.70
2023-01-23T18:46:16.423Z,-0.70
2023-01-23T18:48:49.569Z,-0.70
2023-01-23T18:51:39.052Z,-0.70
2023-01-23T18:54:21.482Z,-0.70
2023-01-23T18:57:07.511Z,-0.70
2023-01-23T18:59:49.290Z,-0.60
2023-01-23T19:02:29.530Z,-0.60
2023-01-23T19:05:22.924Z,-0.60
2023-01-23T19:07:51.909Z,-0.60
2023-01-23T19:10:23.017Z,-0.60
2023-01-23T19:13:09.751Z,-0.70
2023-01-23T19:15:47.207Z,-0.60
2023-01-23T19:18:56.374Z,-0.70
2023-01-23T19:21:29.212Z,-0.60
2023-01-23T19:24:00.493Z,-0.70
2023-01-23T19:26:32.128Z,-0.70
2023-01-23T19:29:19.234Z,-0.70
2023-01-23T19:32:06.493Z,-0.70
2023-01-23T19:34:36.081Z,-0.70
2023-01-23T19:37:05.960Z,-0.70
2023-01-23T19:39:34.514Z,-0.70
2023-01-23T19:42:03.439Z,-0.70
2023-01-23T19:44:32.117Z,-0.70
2023-01-23T19:47:01.043Z,-0.70
2023-01-23T19:49:29.501Z,-0.60
2023-01-23T19:51:58.158Z,-0.70
2023-01-23T19:54:27.960Z,-0.70
2023-01-23T19:56:57.699Z,-0.70
2023-01-23T19:59:27.518Z,-0.70
2023-01-23T20:01:56.403Z,-0.70
2023-01-23T20:04:25.644Z,-0.70
2023-01-23T20:06:54.120Z,-0.60
2023-01-23T20:09:23.007Z,-0.70
2023-01-23T20:11:53.320Z,-0.60
2023-01-23T20:14:22.649Z,-0.70
2023-01-23T20:16:51.383Z,-0.60
2023-01-23T20:19:20.145Z,-0.60
2023-01-23T20:21:48.873Z,-0.50
2023-01-23T20:24:18.111Z,-0.60
2023-01-23T20:26:47.567Z,-0.70
2023-01-23T20:29:17.408Z,-0.60
2023-01-23T20:31:46.895Z,-0.60
2023-01-23T20:34:15.473Z,-0.60
2023-01-23T20:36:44.204Z,-0.60
2023-01-23T20:39:13.869Z,-0.50
2023-01-23T20:41:42.620Z,-0.50
2023-01-23T20:44:11.449Z,-0.60
2023-01-23T20:46:41.394Z,-0.50
2023-01-23T20:49:11.968Z,-0.50
2023-01-23T20:51:40.381Z,-0.50
2023-01-23T20:54:07.810Z,-0.50
2023-01-23T20:56:36.270Z,-0.50
2023-01-23T20:59:19.226Z,-0.60
2023-01-23T21:02:06.725Z,-0.50
2023-01-23T21:04:37.320Z,-0.50
2023-01-23T21:07:06.768Z,-0.50
2023-01-23T21:09:35.276Z,-0.50
2023-01-23T21:12:03.879Z,-0.50
2023-01-23T21:14:32.367Z,-0.40
2023-01-23T21:17:02.640Z,-0.50
2023-01-23T21:19:31.759Z,-0.50
2023-01-23T21:22:00.356Z,-0.50
2023-01-23T21:24:29.232Z,-0.50
2023-01-23T21:26:57.663Z,-0.50
2023-01-23T21:29:26.306Z,-0.50
2023-01-23T21:31:54.841Z,-0.60
2023-01-23T21:34:26.175Z,-0.50
2023-01-23T21:36:54.693Z,-0.50
2023-01-23T21:39:23.362Z,-0.50
2023-01-23T21:41:51.797Z,-0.50
2023-01-23T21:44:20.221Z,-0.50
2023-01-23T21:46:49.240Z,-0.50
2023-01-23T21:49:17.937Z,-0.50
2023-01-23T21:51:47.817Z,-0.50
2023-01-23T21:54:16.512Z,-0.50
2023-01-23T21:56:44.964Z,-0.50
2023-01-23T21:59:13.406Z,-0.50
2023-01-23T22:01:43.013Z,-0.40
2023-01-23T22:04:13.726Z,-0.40
2023-01-23T22:06:44.223Z,-0.40
2023-01-23T22:09:18.657Z,-0.30
2023-01-23T22:11:48.506Z,-0.30
2023-01-23T22:14:18.351Z,-0.40
2023-01-23T22:16:49.468Z,-0.40
2023-01-23T22:19:23.357Z,-0.40
2023-01-23T22:21:53.334Z,-0.40
2023-01-23T22:24:23.393Z,-0.40
2023-01-23T22:26:51.906Z,-0.30
2023-01-23T22:29:20.341Z,-0.40
2023-01-23T22:31:48.959Z,-0.30
2023-01-23T22:34:17.475Z,-0.30
2023-01-23T22:36:45.911Z,-0.30
2023-01-23T22:39:17.009Z,-0.30
2023-01-23T22:41:48.295Z,-0.20
2023-01-23T22:44:16.754Z,-0.30
2023-01-23T22:46:45.475Z,-0.30
2023-01-23T22:49:13.910Z,-0.30
2023-01-23T22:51:42.335Z,-0.30
2023-01-23T22:54:10.843Z,-0.30
2023-01-23T22:56:39.547Z,-0.30
2023-01-23T22:59:10.288Z,-0.20
2023-01-23T23:01:38.795Z,-0.20
2023-01-23T23:04:07.283Z,-0.20
2023-01-23T23:06:35.714Z,-0.20
2023-01-23T23:09:05.397Z,-0.30
2023-01-23T23:11:35.255Z,-0.20
2023-01-23T23:14:03.708Z,-0.20
2023-01-23T23:16:34.320Z,-0.20
2023-01-23T23:19:05.139Z,-0.20
2023-01-23T23:21:36.862Z,-0.20
2023-01-23T23:24:08.351Z,-0.20
2023-01-23T23:26:37.188Z,-0.20
2023-01-23T23:29:06.449Z,-0.20
2023-01-23T23:31:36.373Z,-0.20
2023-01-23T23:34:05.149Z,-0.10
2023-01-23T23:36:33.904Z,-0.20
2023-01-23T23:39:02.602Z,-0.20
2023-01-23T23:41:31.372Z,-0.20
2023-01-23T23:43:59.834Z,-0.20
2023-01-23T23:46:28.827Z,-0.20
2023-01-23T23:48:58.681Z,-0.30
2023-01-23T23:51:27.793Z,-0.20
2023-01-23T23:53:56.264Z,-0.20
2023-01-23T23:56:27.554Z,-0.20
2023-01-23T23:58:57.567Z,-0.20
